Time;durP1;ratioP1;P1;durP2;ratioP2;P2;SDS_P1;SDS_P2;PMS_P1;PMS_P2;Temp;Humidity;BMP_temperature;BMP_pressure;BME280_temperature;BME280_humidity;BME280_pressure;Samples;Min_cycle;Max_cycle;Signal;HPM_P1;HPM_P2
2021/06/26 00:01:41;;;;;;;1.30;0.20;;;;;;;;;;5070004;28;20040;-71
2021/06/26 00:04:10;;;;;;;1.42;0.20;;;;;;;;;;5052438;28;20036;-72
2021/06/26 00:06:37;;;;;;;1.85;0.13;;;;;;;;;;5067021;28;20037;-71
2021/06/26 00:09:05;;;;;;;0.20;0.10;;;;;;;;;;5053121;28;20078;-73
2021/06/26 00:11:33;;;;;;;1.90;0.30;;;;;;;;;;5068203;28;20081;-73
2021/06/26 00:14:00;;;;;;;2.15;0.20;;;;;;;;;;5067324;28;20092;-73
2021/06/26 00:16:27;;;;;;;2.13;0.20;;;;;;;;;;5068269;28;20040;-72
2021/06/26 00:18:54;;;;;;;1.80;0.22;;;;;;;;;;5051489;28;20036;-73
2021/06/26 00:21:21;;;;;;;1.17;0.17;;;;;;;;;;5068746;28;20036;-73
2021/06/26 00:23:48;;;;;;;2.15;0.20;;;;;;;;;;5066351;28;20501;-73
2021/06/26 00:26:15;;;;;;;2.15;0.47;;;;;;;;;;5069183;28;20036;-73
2021/06/26 00:28:43;;;;;;;1.77;0.20;;;;;;;;;;5051553;28;20051;-73
2021/06/26 00:31:10;;;;;;;0.75;0.10;;;;;;;;;;5051916;28;20032;-73
2021/06/26 00:33:37;;;;;;;2.50;0.30;;;;;;;;;;5052381;28;20127;-73
2021/06/26 00:36:04;;;;;;;3.40;0.30;;;;;;;;;;5068793;28;20155;-72
2021/06/26 00:38:32;;;;;;;1.88;0.28;;;;;;;;;;5052240;28;20041;-71
2021/06/26 00:40:59;;;;;;;2.28;0.30;;;;;;;;;;5068756;28;20043;-74
2021/06/26 00:43:26;;;;;;;1.30;0.30;;;;;;;;;;5070303;28;20074;-73
2021/06/26 00:45:54;;;;;;;2.75;0.45;;;;;;;;;;5070585;28;20035;-73
2021/06/26 00:48:21;;;;;;;0.90;0.25;;;;;;;;;;5071766;28;20074;-73
2021/06/26 00:50:48;;;;;;;1.90;0.10;;;;;;;;;;5050989;28;20033;-72
2021/06/26 00:53:15;;;;;;;0.80;0.15;;;;;;;;;;5070080;28;20702;-71
2021/06/26 00:56:00;;;;;;;0.63;0.10;;;;;;;;;;5069212;28;20036;-73
2021/06/26 00:58:27;;;;;;;0.22;0.10;;;;;;;;;;5068618;28;20078;-73
2021/06/26 01:00:55;;;;;;;2.60;0.20;;;;;;;;;;5075690;28;20033;-68
2021/06/26 01:03:22;;;;;;;1.55;0.17;;;;;;;;;;5073101;28;20067;-68
2021/06/26 01:05:50;;;;;;;1.85;0.15;;;;;;;;;;5066001;28;20048;-68
2021/06/26 01:08:17;;;;;;;0.55;0.43;;;;;;;;;;5069318;28;20055;-68
2021/06/26 01:10:44;;;;;;;0.43;0.10;;;;;;;;;;5069345;28;20420;-68
2021/06/26 01:13:12;;;;;;;1.38;0.55;;;;;;;;;;5067571;28;20028;-68
2021/06/26 01:15:39;;;;;;;0.30;0.10;;;;;;;;;;5050384;28;20052;-68
2021/06/26 01:18:06;;;;;;;1.38;0.10;;;;;;;;;;5065868;28;20504;-68
2021/06/26 01:20:34;;;;;;;0.80;0.10;;;;;;;;;;5071837;28;20098;-68
2021/06/26 01:23:02;;;;;;;2.28;0.40;;;;;;;;;;5072715;28;20432;-69
2021/06/26 01:25:29;;;;;;;0.95;0.30;;;;;;;;;;5070308;28;20040;-68
2021/06/26 01:27:57;;;;;;;0.60;0.10;;;;;;;;;;5074439;28;20417;-68
2021/06/26 01:30:32;;;;;;;0.63;0.20;;;;;;;;;;5075263;28;20489;-69
2021/06/26 01:32:59;;;;;;;1.98;0.30;;;;;;;;;;5072644;28;20112;-68
2021/06/26 01:35:27;;;;;;;0.75;0.20;;;;;;;;;;5071225;28;20371;-69
2021/06/26 01:37:54;;;;;;;0.73;0.30;;;;;;;;;;5055319;28;20071;-69
2021/06/26 01:40:23;;;;;;;1.73;0.15;;;;;;;;;;5073137;28;20060;-69
2021/06/26 01:42:51;;;;;;;1.27;0.30;;;;;;;;;;5073160;28;20107;-68
2021/06/26 01:45:19;;;;;;;2.55;0.28;;;;;;;;;;5054163;28;20094;-68
2021/06/26 01:47:47;;;;;;;2.55;0.30;;;;;;;;;;5075499;28;20059;-68
2021/06/26 01:50:15;;;;;;;2.80;0.88;;;;;;;;;;5074264;28;20024;-66
2021/06/26 01:52:43;;;;;;;1.95;0.10;;;;;;;;;;5079153;28;20441;-68
2021/06/26 01:55:12;;;;;;;0.68;0.20;;;;;;;;;;5072303;28;20025;-68
2021/06/26 01:57:39;;;;;;;0.75;0.10;;;;;;;;;;5072699;28;20048;-68
2021/06/26 02:00:09;;;;;;;0.90;0.10;;;;;;;;;;5071410;28;20032;-68
2021/06/26 02:02:36;;;;;;;1.40;0.20;;;;;;;;;;5070978;28;20028;-68
2021/06/26 02:05:07;;;;;;;1.02;0.10;;;;;;;;;;5071467;28;20044;-68
2021/06/26 02:07:34;;;;;;;1.35;0.10;;;;;;;;;;5070280;28;20028;-68
2021/06/26 02:10:01;;;;;;;1.77;0.30;;;;;;;;;;5068279;28;20112;-67
2021/06/26 02:12:28;;;;;;;1.38;0.00;;;;;;;;;;5062561;28;20539;-68
2021/06/26 02:14:55;;;;;;;0.57;0.00;;;;;;;;;;5050058;28;20093;-68
2021/06/26 02:17:23;;;;;;;0.25;0.08;;;;;;;;;;5071431;28;20040;-68
2021/06/26 02:19:50;;;;;;;2.28;0.20;;;;;;;;;;5070570;28;20107;-69
2021/06/26 02:22:18;;;;;;;0.77;0.10;;;;;;;;;;5072060;28;20036;-68
2021/06/26 02:24:45;;;;;;;0.57;0.10;;;;;;;;;;5073602;28;20115;-68
2021/06/26 02:27:12;;;;;;;0.47;0.10;;;;;;;;;;5074587;28;20054;-68
2021/06/26 02:29:40;;;;;;;0.93;0.15;;;;;;;;;;5082225;28;20036;-67
2021/06/26 02:32:07;;;;;;;0.68;0.30;;;;;;;;;;5080663;28;20370;-68
2021/06/26 02:34:34;;;;;;;1.20;0.20;;;;;;;;;;5079183;28;20542;-68
2021/06/26 02:37:02;;;;;;;1.75;0.17;;;;;;;;;;5080124;28;20056;-67
2021/06/26 02:39:29;;;;;;;0.75;0.00;;;;;;;;;;5079259;28;20123;-67
2021/06/26 02:41:56;;;;;;;0.20;0.08;;;;;;;;;;5082261;28;20033;-68
2021/06/26 02:44:23;;;;;;;0.40;0.08;;;;;;;;;;5086482;28;20051;-68
2021/06/26 02:46:51;;;;;;;2.08;0.10;;;;;;;;;;5081852;28;20040;-67
2021/06/26 02:49:18;;;;;;;0.68;0.10;;;;;;;;;;5047434;28;20409;-67
2021/06/26 02:51:46;;;;;;;0.93;0.10;;;;;;;;;;5056582;28;20045;-68
2021/06/26 02:54:13;;;;;;;0.90;0.10;;;;;;;;;;5039523;28;20485;-68
2021/06/26 02:56:40;;;;;;;0.43;0.20;;;;;;;;;;5057993;28;20041;-68
2021/06/26 02:59:07;;;;;;;1.02;0.22;;;;;;;;;;5061346;28;20029;-67
2021/06/26 03:01:34;;;;;;;1.70;0.10;;;;;;;;;;5056471;28;20033;-68
2021/06/26 03:04:01;;;;;;;1.45;0.10;;;;;;;;;;5056983;28;20037;-68
2021/06/26 03:06:29;;;;;;;3.03;0.20;;;;;;;;;;5053552;28;20036;-68
2021/06/26 03:08:56;;;;;;;0.73;0.20;;;;;;;;;;5062315;28;20056;-67
2021/06/26 03:11:23;;;;;;;2.75;0.20;;;;;;;;;;5063671;28;20037;-68
2021/06/26 03:13:50;;;;;;;1.38;0.10;;;;;;;;;;5066420;28;20033;-68
2021/06/26 03:16:17;;;;;;;0.88;0.03;;;;;;;;;;5062999;28;20040;-68
2021/06/26 03:18:44;;;;;;;0.57;0.00;;;;;;;;;;5045797;28;20040;-68
2021/06/26 03:21:12;;;;;;;0.98;0.10;;;;;;;;;;5061727;28;20084;-67
2021/06/26 03:23:40;;;;;;;0.63;0.10;;;;;;;;;;5064626;28;20044;-67
2021/06/26 03:26:07;;;;;;;0.38;0.10;;;;;;;;;;5060310;28;20044;-67
2021/06/26 03:28:34;;;;;;;1.08;0.20;;;;;;;;;;5066126;28;20021;-67
2021/06/26 03:31:02;;;;;;;2.85;1.20;;;;;;;;;;5063736;28;20021;-67
2021/06/26 03:33:32;;;;;;;3.97;2.45;;;;;;;;;;5069614;28;20268;-68
2021/06/26 03:35:59;;;;;;;0.70;0.20;;;;;;;;;;5064933;28;20083;-68
2021/06/26 03:38:26;;;;;;;1.60;0.10;;;;;;;;;;5065963;28;20033;-67
2021/06/26 03:40:57;;;;;;;4.68;0.30;;;;;;;;;;5063752;28;20045;-67
2021/06/26 03:43:24;;;;;;;0.80;0.40;;;;;;;;;;5051499;28;20459;-68
2021/06/26 03:45:51;;;;;;;0.40;0.10;;;;;;;;;;5048076;28;20562;-68
2021/06/26 03:48:18;;;;;;;1.10;0.10;;;;;;;;;;5056158;28;20437;-69
2021/06/26 03:50:45;;;;;;;1.25;0.32;;;;;;;;;;5070440;28;20044;-68
2021/06/26 03:53:13;;;;;;;0.75;0.10;;;;;;;;;;5059443;28;20071;-68
2021/06/26 03:55:40;;;;;;;0.35;0.10;;;;;;;;;;5073223;28;20028;-68
2021/06/26 03:58:27;;;;;;;1.27;0.20;;;;;;;;;;5070475;28;20119;-68
2021/06/26 04:00:56;;;;;;;0.20;0.05;;;;;;;;;;5067688;28;20393;-68
2021/06/26 04:03:23;;;;;;;0.95;0.10;;;;;;;;;;5069301;28;20029;-68
2021/06/26 04:05:51;;;;;;;0.15;0.08;;;;;;;;;;5070820;28;20033;-68
2021/06/26 04:08:18;;;;;;;0.38;0.08;;;;;;;;;;5056227;28;20074;-68
2021/06/26 04:10:46;;;;;;;0.75;0.00;;;;;;;;;;5070326;28;20055;-69
2021/06/26 04:13:13;;;;;;;0.00;0.00;;;;;;;;;;5070958;28;20039;-69
2021/06/26 04:15:40;;;;;;;0.88;0.10;;;;;;;;;;5070195;28;20035;-69
2021/06/26 04:18:07;;;;;;;0.63;0.08;;;;;;;;;;5071618;28;20090;-69
2021/06/26 04:20:34;;;;;;;0.35;0.10;;;;;;;;;;5066195;28;20025;-69
2021/06/26 04:23:01;;;;;;;0.40;0.10;;;;;;;;;;5070641;28;20035;-67
2021/06/26 04:25:28;;;;;;;1.33;0.20;;;;;;;;;;5082306;28;20031;-68
2021/06/26 04:27:56;;;;;;;2.63;0.17;;;;;;;;;;5066780;28;20036;-67
2021/06/26 04:30:23;;;;;;;1.27;0.10;;;;;;;;;;5068920;28;20040;-68
2021/06/26 04:32:50;;;;;;;0.70;0.20;;;;;;;;;;5070462;28;20434;-68
2021/06/26 04:35:20;;;;;;;1.42;0.40;;;;;;;;;;5052289;28;20033;-68
2021/06/26 04:37:48;;;;;;;0.80;0.30;;;;;;;;;;5071910;28;20078;-68
2021/06/26 04:40:16;;;;;;;0.30;0.10;;;;;;;;;;5068333;28;20403;-68
2021/06/26 04:42:43;;;;;;;1.65;0.10;;;;;;;;;;5072095;28;20516;-68
2021/06/26 04:45:11;;;;;;;1.17;0.10;;;;;;;;;;5062485;28;20493;-68
2021/06/26 04:47:39;;;;;;;0.60;0.20;;;;;;;;;;5069794;28;20048;-68
2021/06/26 04:50:07;;;;;;;0.50;0.08;;;;;;;;;;5071464;28;20511;-68
2021/06/26 04:52:35;;;;;;;0.30;0.20;;;;;;;;;;5073912;28;20115;-68
2021/06/26 04:55:03;;;;;;;0.90;0.20;;;;;;;;;;5070726;28;20025;-68
2021/06/26 04:57:30;;;;;;;1.40;0.10;;;;;;;;;;5053949;28;20048;-68
2021/06/26 04:59:58;;;;;;;0.45;0.17;;;;;;;;;;5069389;28;20522;-68
2021/06/26 05:02:25;;;;;;;4.45;2.20;;;;;;;;;;5091803;28;20040;-69
2021/06/26 05:04:52;;;;;;;1.25;0.63;;;;;;;;;;5085886;28;20417;-68
2021/06/26 05:07:19;;;;;;;2.28;1.95;;;;;;;;;;5068510;28;20037;-68
2021/06/26 05:09:46;;;;;;;1.23;0.40;;;;;;;;;;5069262;28;20033;-68
2021/06/26 05:12:13;;;;;;;0.30;0.17;;;;;;;;;;5071992;28;20036;-68
2021/06/26 05:14:40;;;;;;;0.75;0.32;;;;;;;;;;5064409;28;20033;-68
2021/06/26 05:17:07;;;;;;;0.40;0.20;;;;;;;;;;5067850;28;20049;-68
2021/06/26 05:19:34;;;;;;;0.40;0.10;;;;;;;;;;5069739;28;20086;-68
2021/06/26 05:22:01;;;;;;;0.63;0.00;;;;;;;;;;5071913;28;20103;-68
2021/06/26 05:24:29;;;;;;;0.50;0.10;;;;;;;;;;5073866;28;20028;-68
2021/06/26 05:26:56;;;;;;;0.52;0.10;;;;;;;;;;5068443;28;20032;-68
2021/06/26 05:29:23;;;;;;;0.00;0.00;;;;;;;;;;5066516;28;20025;-68
2021/06/26 05:31:50;;;;;;;0.65;0.20;;;;;;;;;;5067346;28;20037;-67
2021/06/26 05:34:17;;;;;;;1.02;0.20;;;;;;;;;;5069419;28;20031;-67
2021/06/26 05:36:44;;;;;;;0.20;0.00;;;;;;;;;;5063080;28;20075;-68
2021/06/26 05:39:11;;;;;;;0.57;0.10;;;;;;;;;;5065612;28;20041;-68
2021/06/26 05:41:38;;;;;;;1.10;0.10;;;;;;;;;;5076066;28;20116;-68
2021/06/26 05:44:06;;;;;;;1.15;0.10;;;;;;;;;;5070024;28;20055;-67
2021/06/26 05:46:33;;;;;;;0.80;0.30;;;;;;;;;;5066561;28;20040;-67
2021/06/26 05:49:00;;;;;;;13.25;0.85;;;;;;;;;;5068486;28;20405;-68
2021/06/26 05:51:27;;;;;;;0.40;0.20;;;;;;;;;;5050206;28;20492;-68
2021/06/26 05:53:54;;;;;;;1.20;0.43;;;;;;;;;;5066370;28;20108;-69
2021/06/26 05:56:21;;;;;;;0.65;0.22;;;;;;;;;;5067309;28;20033;-68
2021/06/26 05:58:49;;;;;;;0.25;0.10;;;;;;;;;;5068743;28;20036;-69
2021/06/26 06:01:16;;;;;;;2.67;0.35;;;;;;;;;;5070205;28;20044;-69
2021/06/26 06:03:44;;;;;;;0.82;0.40;;;;;;;;;;5055716;28;20063;-69
2021/06/26 06:06:11;;;;;;;0.20;0.00;;;;;;;;;;5071187;28;20033;-67
2021/06/26 06:08:38;;;;;;;0.35;0.10;;;;;;;;;;5072162;28;20040;-67
2021/06/26 06:11:05;;;;;;;0.20;0.10;;;;;;;;;;5068272;28;20064;-68
2021/06/26 06:13:33;;;;;;;0.68;0.17;;;;;;;;;;5073801;28;20029;-68
2021/06/26 06:16:00;;;;;;;0.30;0.10;;;;;;;;;;5071002;28;20060;-68
2021/06/26 06:18:27;;;;;;;0.45;0.20;;;;;;;;;;5073734;28;20137;-68
2021/06/26 06:20:54;;;;;;;0.75;0.10;;;;;;;;;;5071193;28;20381;-68
2021/06/26 06:23:21;;;;;;;0.30;0.10;;;;;;;;;;5063310;28;20033;-67
2021/06/26 06:25:48;;;;;;;1.90;0.25;;;;;;;;;;5079432;28;20033;-68
2021/06/26 06:28:16;;;;;;;1.77;0.32;;;;;;;;;;5080619;28;20104;-68
2021/06/26 06:30:43;;;;;;;0.60;0.30;;;;;;;;;;5078584;28;20063;-68
2021/06/26 06:33:10;;;;;;;1.90;0.50;;;;;;;;;;5069562;28;20108;-68
2021/06/26 06:35:37;;;;;;;1.02;0.30;;;;;;;;;;5082498;28;20031;-67
2021/06/26 06:38:04;;;;;;;1.33;0.40;;;;;;;;;;5082839;28;20037;-67
2021/06/26 06:40:31;;;;;;;0.52;0.22;;;;;;;;;;5072625;28;20519;-68
2021/06/26 06:42:59;;;;;;;0.40;0.10;;;;;;;;;;5073248;28;20488;-67
2021/06/26 06:45:26;;;;;;;1.48;0.20;;;;;;;;;;5074394;28;20676;-68
2021/06/26 06:47:53;;;;;;;0.90;0.30;;;;;;;;;;5074027;28;20041;-68
2021/06/26 06:50:20;;;;;;;0.50;0.20;;;;;;;;;;5060987;28;20052;-68
2021/06/26 06:52:47;;;;;;;0.30;0.10;;;;;;;;;;5077782;28;20140;-67
2021/06/26 06:55:14;;;;;;;0.60;0.22;;;;;;;;;;5074485;28;20088;-68
2021/06/26 06:57:41;;;;;;;0.70;0.20;;;;;;;;;;5062757;28;20045;-68
2021/06/26 07:00:09;;;;;;;0.43;0.10;;;;;;;;;;5078554;28;20056;-67
2021/06/26 07:02:36;;;;;;;0.65;0.20;;;;;;;;;;5073694;28;20091;-68
2021/06/26 07:05:04;;;;;;;0.25;0.10;;;;;;;;;;5066597;28;20638;-68
2021/06/26 07:07:31;;;;;;;1.08;0.30;;;;;;;;;;5072708;28;20687;-68
2021/06/26 07:09:58;;;;;;;0.68;0.32;;;;;;;;;;5061813;28;20044;-68
2021/06/26 07:12:25;;;;;;;0.80;0.32;;;;;;;;;;5066744;28;20131;-67
2021/06/26 07:14:52;;;;;;;1.30;0.55;;;;;;;;;;5065244;28;20041;-67
2021/06/26 07:17:20;;;;;;;1.30;0.60;;;;;;;;;;5066349;28;20052;-67
2021/06/26 07:19:47;;;;;;;2.17;0.40;;;;;;;;;;5066380;28;20024;-67
2021/06/26 07:22:14;;;;;;;0.65;0.40;;;;;;;;;;5070694;28;20033;-67
2021/06/26 07:24:41;;;;;;;3.20;0.57;;;;;;;;;;5071242;28;20041;-67
2021/06/26 07:27:08;;;;;;;1.10;0.60;;;;;;;;;;5068987;28;20039;-67
2021/06/26 07:29:35;;;;;;;2.80;0.60;;;;;;;;;;5069544;28;20028;-67
2021/06/26 07:32:03;;;;;;;1.92;0.90;;;;;;;;;;5069662;28;20036;-67
2021/06/26 07:34:30;;;;;;;2.80;1.27;;;;;;;;;;5069579;28;20031;-67
2021/06/26 07:36:57;;;;;;;2.65;1.77;;;;;;;;;;5069829;28;20080;-67
2021/06/26 07:39:24;;;;;;;3.53;2.20;;;;;;;;;;5067847;28;20033;-68
2021/06/26 07:41:51;;;;;;;3.15;1.33;;;;;;;;;;5069185;28;20071;-68
2021/06/26 07:44:18;;;;;;;4.00;1.52;;;;;;;;;;5050752;28;20551;-69
2021/06/26 07:46:45;;;;;;;2.13;0.98;;;;;;;;;;5071871;28;20040;-68
2021/06/26 07:49:13;;;;;;;1.67;0.80;;;;;;;;;;5055944;28;20072;-70
2021/06/26 07:51:40;;;;;;;2.75;0.90;;;;;;;;;;5058851;28;20033;-69
2021/06/26 07:54:07;;;;;;;2.13;1.20;;;;;;;;;;5055031;28;20029;-69
2021/06/26 07:56:34;;;;;;;2.95;1.02;;;;;;;;;;5034290;28;20047;-69
2021/06/26 07:59:01;;;;;;;1.90;0.98;;;;;;;;;;5041501;28;20032;-69
2021/06/26 08:01:28;;;;;;;1.88;0.85;;;;;;;;;;5054122;28;20040;-69
2021/06/26 08:03:56;;;;;;;2.22;0.80;;;;;;;;;;5065040;28;20182;-69
2021/06/26 08:06:24;;;;;;;2.28;0.90;;;;;;;;;;5069202;28;20550;-69
2021/06/26 08:08:51;;;;;;;2.20;1.30;;;;;;;;;;5064263;28;20032;-70
2021/06/26 08:11:18;;;;;;;2.40;1.13;;;;;;;;;;5066158;28;20025;-70
2021/06/26 08:13:45;;;;;;;3.25;1.25;;;;;;;;;;5064399;28;20094;-70
2021/06/26 08:16:12;;;;;;;4.30;0.95;;;;;;;;;;5066283;28;20058;-70
2021/06/26 08:18:40;;;;;;;5.43;2.65;;;;;;;;;;5063181;28;20043;-69
2021/06/26 08:21:07;;;;;;;14.98;4.45;;;;;;;;;;5061458;28;20044;-69
2021/06/26 08:23:34;;;;;;;6.28;2.60;;;;;;;;;;5069096;28;20402;-69
2021/06/26 08:26:01;;;;;;;3.33;1.58;;;;;;;;;;5060495;28;20397;-68
2021/06/26 08:28:28;;;;;;;3.95;2.20;;;;;;;;;;5069382;28;20036;-68
2021/06/26 08:30:56;;;;;;;3.03;1.50;;;;;;;;;;5079807;28;20024;-68
2021/06/26 08:33:23;;;;;;;9.05;3.25;;;;;;;;;;5083450;28;20044;-69
2021/06/26 08:35:50;;;;;;;14.45;4.43;;;;;;;;;;5063029;28;20127;-69
2021/06/26 08:38:17;;;;;;;3.22;1.52;;;;;;;;;;5070241;28;20130;-69
2021/06/26 08:40:45;;;;;;;2.20;1.20;;;;;;;;;;5086791;28;20043;-69
2021/06/26 08:43:12;;;;;;;5.30;1.27;;;;;;;;;;5074617;28;20390;-69
2021/06/26 08:45:39;;;;;;;2.45;1.30;;;;;;;;;;5075609;28;20032;-70
2021/06/26 08:48:06;;;;;;;5.13;2.20;;;;;;;;;;5067409;28;20051;-69
2021/06/26 08:50:33;;;;;;;5.95;2.00;;;;;;;;;;5086578;28;20054;-69
2021/06/26 08:53:01;;;;;;;5.28;1.85;;;;;;;;;;5052216;28;20059;-69
2021/06/26 08:55:28;;;;;;;2.40;1.08;;;;;;;;;;5078349;28;20021;-69
2021/06/26 08:57:55;;;;;;;2.28;1.13;;;;;;;;;;5082643;28;20032;-70
2021/06/26 09:00:26;;;;;;;2.47;1.45;;;;;;;;;;5057302;28;20071;-70
2021/06/26 09:03:04;;;;;;;5.38;2.25;;;;;;;;;;5073717;28;20056;-70
2021/06/26 09:05:32;;;;;;;5.95;2.83;;;;;;;;;;5081590;28;20028;-70
2021/06/26 09:08:12;;;;;;;3.33;1.90;;;;;;;;;;5080574;28;20417;-70
2021/06/26 09:10:40;;;;;;;3.70;2.60;;;;;;;;;;5076778;28;20032;-70
2021/06/26 09:13:15;;;;;;;4.38;3.03;;;;;;;;;;5085341;28;20094;-70
2021/06/26 09:15:42;;;;;;;7.00;4.18;;;;;;;;;;5077824;28;20033;-70
2021/06/26 09:18:13;;;;;;;5.10;3.70;;;;;;;;;;5078798;28;20124;-70
2021/06/26 09:20:43;;;;;;;8.00;4.35;;;;;;;;;;5053903;28;20075;-70
2021/06/26 09:23:37;;;;;;;7.90;4.45;;;;;;;;;;5054713;28;20033;-70
2021/06/26 09:26:05;;;;;;;8.18;4.68;;;;;;;;;;5058459;28;20510;-70
2021/06/26 09:28:32;;;;;;;7.50;4.47;;;;;;;;;;5078043;28;20032;-70
2021/06/26 09:31:00;;;;;;;8.35;4.40;;;;;;;;;;5069067;28;20072;-69
2021/06/26 09:33:27;;;;;;;7.10;3.90;;;;;;;;;;5068108;28;20085;-69
2021/06/26 09:36:08;;;;;;;4.80;3.00;;;;;;;;;;5078284;28;20086;-70
2021/06/26 09:38:36;;;;;;;8.52;4.07;;;;;;;;;;5087589;28;20036;-69
2021/06/26 09:41:17;;;;;;;7.57;3.65;;;;;;;;;;5077317;28;20033;-69
2021/06/26 09:43:44;;;;;;;5.85;3.15;;;;;;;;;;5059767;28;20035;-70
2021/06/26 09:46:15;;;;;;;5.88;3.10;;;;;;;;;;5088181;28;20043;-69
2021/06/26 09:48:49;;;;;;;6.50;3.47;;;;;;;;;;5071025;28;20550;-70
2021/06/26 09:51:23;;;;;;;5.93;2.95;;;;;;;;;;5077086;28;20488;-69
2021/06/26 09:53:55;;;;;;;4.40;2.60;;;;;;;;;;5084855;28;20045;-70
2021/06/26 09:56:23;;;;;;;5.07;3.15;;;;;;;;;;5074957;28;20489;-70
2021/06/26 09:58:54;;;;;;;4.80;3.05;;;;;;;;;;5070933;28;20029;-70
2021/06/26 10:01:21;;;;;;;11.02;6.35;;;;;;;;;;5073990;28;20032;-71
2021/06/26 10:03:49;;;;;;;8.57;4.90;;;;;;;;;;5054027;28;20044;-71
2021/06/26 10:06:20;;;;;;;8.02;3.65;;;;;;;;;;5079158;28;20451;-70
2021/06/26 10:08:48;;;;;;;6.97;3.25;;;;;;;;;;5077837;28;20033;-69
2021/06/26 10:11:15;;;;;;;5.82;3.08;;;;;;;;;;5079632;28;20109;-69
2021/06/26 10:13:43;;;;;;;4.85;3.13;;;;;;;;;;5078349;28;20044;-69
2021/06/26 10:16:10;;;;;;;6.38;3.22;;;;;;;;;;5062133;28;20130;-69
2021/06/26 10:18:40;;;;;;;7.93;3.80;;;;;;;;;;5061731;28;20566;-69
2021/06/26 10:21:07;;;;;;;4.68;2.72;;;;;;;;;;5060031;28;20043;-69
2021/06/26 10:23:36;;;;;;;5.93;2.67;;;;;;;;;;5084552;28;20445;-69
2021/06/26 10:26:04;;;;;;;5.85;2.53;;;;;;;;;;5056970;28;20069;-69
2021/06/26 10:28:32;;;;;;;5.45;2.88;;;;;;;;;;5081135;28;20028;-70
2021/06/26 10:31:00;;;;;;;4.70;2.63;;;;;;;;;;5093646;28;20025;-70
2021/06/26 10:33:29;;;;;;;3.40;2.20;;;;;;;;;;5092839;28;20134;-70
2021/06/26 10:35:57;;;;;;;5.50;2.60;;;;;;;;;;5060496;28;20040;-70
2021/06/26 10:38:24;;;;;;;3.33;2.28;;;;;;;;;;5093790;28;20039;-70
2021/06/26 10:40:53;;;;;;;3.00;2.25;;;;;;;;;;5058490;28;20043;-69
2021/06/26 10:43:21;;;;;;;4.07;2.13;;;;;;;;;;5080808;28;20044;-70
2021/06/26 10:45:49;;;;;;;3.55;2.28;;;;;;;;;;5075754;28;20123;-70
2021/06/26 10:48:17;;;;;;;4.25;2.25;;;;;;;;;;5087441;28;20067;-70
2021/06/26 10:50:49;;;;;;;3.70;2.08;;;;;;;;;;5077084;28;20037;-69
2021/06/26 10:53:26;;;;;;;4.63;2.13;;;;;;;;;;5062680;28;20067;-70
2021/06/26 10:56:10;;;;;;;3.40;1.77;;;;;;;;;;5070309;28;20036;-70
2021/06/26 10:58:39;;;;;;;4.45;1.85;;;;;;;;;;5062798;28;20497;-70
2021/06/26 11:01:17;;;;;;;2.40;1.75;;;;;;;;;;5069922;28;20492;-70
2021/06/26 11:03:44;;;;;;;4.20;1.60;;;;;;;;;;5054995;28;20115;-70
2021/06/26 11:06:30;;;;;;;4.50;2.33;;;;;;;;;;5050915;28;20390;-69
2021/06/26 11:08:58;;;;;;;2.50;1.52;;;;;;;;;;5074941;28;20029;-69
2021/06/26 11:11:33;;;;;;;2.65;1.75;;;;;;;;;;5059598;28;20028;-70
2021/06/26 11:14:06;;;;;;;3.28;1.70;;;;;;;;;;5065987;28;20401;-69
2021/06/26 11:16:34;;;;;;;2.95;2.13;;;;;;;;;;5080257;28;20388;-70
2021/06/26 11:19:01;;;;;;;5.80;2.03;;;;;;;;;;5064546;28;20028;-69
2021/06/26 11:21:28;;;;;;;7.43;2.88;;;;;;;;;;5058609;28;20036;-70
2021/06/26 11:23:55;;;;;;;7.32;4.53;;;;;;;;;;5070143;28;20501;-70
2021/06/26 11:26:22;;;;;;;7.30;3.65;;;;;;;;;;5067740;28;20068;-69
2021/06/26 11:28:50;;;;;;;7.78;5.97;;;;;;;;;;5087224;28;20489;-70
2021/06/26 11:31:17;;;;;;;9.35;6.55;;;;;;;;;;5080249;28;20035;-69
2021/06/26 11:33:44;;;;;;;9.02;5.97;;;;;;;;;;5055091;28;20070;-69
2021/06/26 11:36:13;;;;;;;7.50;4.97;;;;;;;;;;5081538;28;20123;-69
2021/06/26 11:38:41;;;;;;;6.32;3.75;;;;;;;;;;5056040;28;20393;-70
2021/06/26 11:41:09;;;;;;;3.00;2.15;;;;;;;;;;5073304;28;20029;-69
2021/06/26 11:43:36;;;;;;;4.80;3.05;;;;;;;;;;5084076;28;20028;-70
2021/06/26 11:46:10;;;;;;;4.35;2.75;;;;;;;;;;5073552;28;20028;-69
2021/06/26 11:48:37;;;;;;;5.82;3.35;;;;;;;;;;5068828;28;20067;-70
2021/06/26 11:51:06;;;;;;;5.32;2.83;;;;;;;;;;5056766;28;20041;-70
2021/06/26 11:53:38;;;;;;;5.78;3.95;;;;;;;;;;5066697;28;20048;-70
2021/06/26 11:56:05;;;;;;;4.45;3.10;;;;;;;;;;5081485;28;20024;-70
2021/06/26 11:58:43;;;;;;;5.47;3.20;;;;;;;;;;5083730;28;20119;-70
2021/06/26 12:01:14;;;;;;;3.58;2.55;;;;;;;;;;5073610;28;20025;-70
2021/06/26 12:03:42;;;;;;;3.75;1.88;;;;;;;;;;5075975;28;20037;-70
2021/06/26 12:06:10;;;;;;;3.08;2.15;;;;;;;;;;5074309;28;20064;-70
2021/06/26 12:08:46;;;;;;;3.15;1.75;;;;;;;;;;5077489;28;20028;-70
2021/06/26 12:11:21;;;;;;;3.40;1.67;;;;;;;;;;5075925;28;20055;-69
2021/06/26 12:13:49;;;;;;;2.58;1.48;;;;;;;;;;5077175;28;20020;-70
2021/06/26 12:16:18;;;;;;;4.05;1.58;;;;;;;;;;5058584;28;20032;-70
2021/06/26 12:19:11;;;;;;;3.67;1.92;;;;;;;;;;5073617;28;20040;-69
2021/06/26 12:21:41;;;;;;;3.03;1.67;;;;;;;;;;5052068;28;20481;-70
2021/06/26 12:24:10;;;;;;;2.78;1.48;;;;;;;;;;5077914;28;20405;-69
2021/06/26 12:26:38;;;;;;;2.45;1.52;;;;;;;;;;5069890;28;20032;-70
2021/06/26 12:29:05;;;;;;;3.58;1.77;;;;;;;;;;5054377;28;20032;-69
2021/06/26 12:31:42;;;;;;;2.60;1.85;;;;;;;;;;5076749;28;20233;-69
2021/06/26 12:34:10;;;;;;;2.53;1.67;;;;;;;;;;5075766;28;20579;-69
2021/06/26 12:36:37;;;;;;;3.67;1.65;;;;;;;;;;5072059;28;20052;-69
2021/06/26 12:39:07;;;;;;;4.65;1.80;;;;;;;;;;5075623;28;20052;-70
2021/06/26 12:41:34;;;;;;;2.20;1.52;;;;;;;;;;5077366;28;20037;-69
2021/06/26 12:44:03;;;;;;;3.60;1.63;;;;;;;;;;5078880;28;20499;-69
2021/06/26 12:46:31;;;;;;;3.38;1.58;;;;;;;;;;5072779;28;20036;-69
2021/06/26 12:49:00;;;;;;;2.95;1.50;;;;;;;;;;5059366;28;20044;-69
2021/06/26 12:51:34;;;;;;;4.45;1.83;;;;;;;;;;5080128;28;20101;-69
2021/06/26 12:54:09;;;;;;;2.88;1.67;;;;;;;;;;5084348;28;20033;-68
2021/06/26 12:56:37;;;;;;;3.72;1.35;;;;;;;;;;5061880;28;20548;-69
2021/06/26 12:59:05;;;;;;;4.93;2.42;;;;;;;;;;5072664;28;20511;-69
2021/06/26 13:01:40;;;;;;;3.05;1.40;;;;;;;;;;5080484;28;20029;-70
2021/06/26 13:04:06;;;;;;;;;;;;;;;;;;5078935;28;20031;-70
2021/06/26 13:06:44;;;;;;;3.20;1.35;;;;;;;;;;5072248;28;19908;-69
2021/06/26 13:09:11;;;;;;;3.03;1.73;;;;;;;;;;5066082;28;20074;-69
2021/06/26 13:11:40;;;;;;;2.42;1.40;;;;;;;;;;5093869;28;20108;-69
2021/06/26 13:14:09;;;;;;;5.13;2.08;;;;;;;;;;5079175;28;20028;-69
2021/06/26 13:16:37;;;;;;;2.20;1.50;;;;;;;;;;5094792;28;20055;-69
2021/06/26 13:19:05;;;;;;;5.65;1.70;;;;;;;;;;5093824;28;20055;-69
2021/06/26 13:21:33;;;;;;;2.28;1.30;;;;;;;;;;5075407;28;20051;-69
2021/06/26 13:24:01;;;;;;;3.63;1.20;;;;;;;;;;5075634;28;20028;-69
2021/06/26 13:26:29;;;;;;;2.80;1.30;;;;;;;;;;5074102;28;20090;-69
2021/06/26 13:28:56;;;;;;;1.90;1.17;;;;;;;;;;5079304;28;20111;-69
2021/06/26 13:31:23;;;;;;;2.70;1.30;;;;;;;;;;5070231;28;20567;-69
2021/06/26 13:33:50;;;;;;;2.58;1.20;;;;;;;;;;5090678;28;20488;-69
2021/06/26 13:36:17;;;;;;;2.38;1.25;;;;;;;;;;5080302;28;20054;-69
2021/06/26 13:38:44;;;;;;;2.92;1.48;;;;;;;;;;5088838;28;20114;-69
2021/06/26 13:41:11;;;;;;;2.97;1.30;;;;;;;;;;5057973;28;20383;-69
2021/06/26 13:43:39;;;;;;;2.83;1.65;;;;;;;;;;5074285;28;20045;-70
2021/06/26 13:46:06;;;;;;;3.65;1.50;;;;;;;;;;5068132;28;20029;-70
2021/06/26 13:48:33;;;;;;;2.65;1.33;;;;;;;;;;5064783;28;20052;-69
2021/06/26 13:51:00;;;;;;;2.40;1.33;;;;;;;;;;5078905;28;20032;-70
2021/06/26 13:53:28;;;;;;;2.92;1.52;;;;;;;;;;5070783;28;20025;-69
2021/06/26 13:55:55;;;;;;;2.60;1.23;;;;;;;;;;5088304;28;20481;-70
2021/06/26 13:58:22;;;;;;;1.88;1.10;;;;;;;;;;5075912;28;20040;-69
2021/06/26 14:00:49;;;;;;;3.65;0.95;;;;;;;;;;5079561;28;20496;-70
2021/06/26 14:03:17;;;;;;;2.75;1.23;;;;;;;;;;5087636;28;20043;-69
2021/06/26 14:05:44;;;;;;;2.00;1.10;;;;;;;;;;5088528;28;20028;-70
2021/06/26 14:08:12;;;;;;;1.77;1.00;;;;;;;;;;5086607;28;20067;-69
2021/06/26 14:10:39;;;;;;;6.15;3.78;;;;;;;;;;5082218;28;20032;-70
2021/06/26 14:13:07;;;;;;;11.07;7.45;;;;;;;;;;5086922;28;20109;-70
2021/06/26 14:15:35;;;;;;;6.03;3.58;;;;;;;;;;5092129;28;20380;-70
2021/06/26 14:18:02;;;;;;;6.13;3.22;;;;;;;;;;5072037;28;20128;-70
2021/06/26 14:20:29;;;;;;;2.80;1.50;;;;;;;;;;5085786;28;20473;-69
2021/06/26 14:22:58;;;;;;;2.72;1.10;;;;;;;;;;5078074;28;20028;-69
2021/06/26 14:25:26;;;;;;;3.63;1.20;;;;;;;;;;5089765;28;20025;-69
2021/06/26 14:27:53;;;;;;;2.83;1.45;;;;;;;;;;5086629;28;20526;-69
2021/06/26 14:30:21;;;;;;;1.95;1.08;;;;;;;;;;5081747;28;20111;-69
2021/06/26 14:32:49;;;;;;;2.88;1.33;;;;;;;;;;5079691;28;20044;-69
2021/06/26 14:35:16;;;;;;;2.92;1.27;;;;;;;;;;5084971;28;20393;-69
2021/06/26 14:37:47;;;;;;;5.93;3.13;;;;;;;;;;5074455;28;20125;-69
2021/06/26 14:40:14;;;;;;;3.47;2.08;;;;;;;;;;5077070;28;20024;-69
2021/06/26 14:42:41;;;;;;;5.25;2.97;;;;;;;;;;5087553;28;20047;-69
2021/06/26 14:45:09;;;;;;;6.15;3.40;;;;;;;;;;5078946;28;20064;-68
2021/06/26 14:47:36;;;;;;;5.00;2.55;;;;;;;;;;5081256;28;20074;-69
2021/06/26 14:50:04;;;;;;;4.90;2.70;;;;;;;;;;5088223;28;20488;-69